sensor_id;sensor_type;location;lat;lon;timestamp;P1;durP1;ratioP1;P2;durP2;ratioP2
4806;SDS011;2417;52.482;13.432;2023-10-09T00:00:15;7.10;;;3.60;;
4806;SDS011;2417;52.482;13.432;2023-10-09T00:03:00;9.03;;;3.93;;
4806;SDS011;2417;52.482;13.432;2023-10-09T00:05:30;10.00;;;4.63;;
4806;SDS011;2417;52.482;13.432;2023-10-09T00:08:07;8.53;;;4.67;;
4806;SDS011;2417;52.482;13.432;2023-10-09T00:10:38;7.80;;;4.10;;
4806;SDS011;2417;52.482;13.432;2023-10-09T00:13:15;8.00;;;4.00;;
4806;SDS011;2417;52.482;13.432;2023-10-09T00:15:46;9.07;;;3.40;;
4806;SDS011;2417;52.482;13.432;2023-10-09T00:18:20;6.97;;;3.33;;
4806;SDS011;2417;52.482;13.432;2023-10-09T00:20:56;33.87;;;5.00;;
4806;SDS011;2417;52.482;13.432;2023-10-09T00:23:38;9.63;;;5.20;;
4806;SDS011;2417;52.482;13.432;2023-10-09T00:26:07;12.10;;;4.80;;
4806;SDS011;2417;52.482;13.432;2023-10-09T00:28:49;20.07;;;5.53;;
4806;SDS011;2417;52.482;13.432;2023-10-09T00:31:20;5.90;;;3.03;;
4806;SDS011;2417;52.482;13.432;2023-10-09T00:33:57;7.97;;;3.70;;
4806;SDS011;2417;52.482;13.432;2023-10-09T00:36:34;33.37;;;4.90;;
4806;SDS011;2417;52.482;13.432;2023-10-09T00:39:17;8.93;;;3.90;;
4806;SDS011;2417;52.482;13.432;2023-10-09T00:41:58;9.23;;;4.80;;
4806;SDS011;2417;52.482;13.432;2023-10-09T00:44:27;33.07;;;5.23;;
4806;SDS011;2417;52.482;13.432;2023-10-09T00:47:06;15.63;;;5.80;;
4806;SDS011;2417;52.482;13.432;2023-10-09T00:49:49;9.63;;;4.00;;
4806;SDS011;2417;52.482;13.432;2023-10-09T00:52:18;7.50;;;3.90;;
4806;SDS011;2417;52.482;13.432;2023-10-09T00:54:56;8.27;;;4.70;;
4806;SDS011;2417;52.482;13.432;2023-10-09T00:57:28;8.40;;;3.90;;
4806;SDS011;2417;52.482;13.432;2023-10-09T00:59:58;11.10;;;3.80;;
4806;SDS011;2417;52.482;13.432;2023-10-09T01:02:28;8.77;;;4.17;;
4806;SDS011;2417;52.482;13.432;2023-10-09T01:05:03;16.50;;;3.80;;
4806;SDS011;2417;52.482;13.432;2023-10-09T01:07:46;7.17;;;3.80;;
4806;SDS011;2417;52.482;13.432;2023-10-09T01:10:15;5.93;;;3.73;;
4806;SDS011;2417;52.482;13.432;2023-10-09T01:13:02;7.50;;;4.30;;
4806;SDS011;2417;52.482;13.432;2023-10-09T01:15:31;6.93;;;4.10;;
4806;SDS011;2417;52.482;13.432;2023-10-09T01:18:12;4.97;;;3.43;;
4806;SDS011;2417;52.482;13.432;2023-10-09T01:20:41;8.10;;;3.70;;
4806;SDS011;2417;52.482;13.432;2023-10-09T01:23:13;7.97;;;3.97;;
4806;SDS011;2417;52.482;13.432;2023-10-09T01:25:43;5.50;;;3.73;;
4806;SDS011;2417;52.482;13.432;2023-10-09T01:28:16;6.77;;;4.07;;
4806;SDS011;2417;52.482;13.432;2023-10-09T01:30:44;6.07;;;3.80;;
4806;SDS011;2417;52.482;13.432;2023-10-09T01:33:14;12.03;;;4.10;;
4806;SDS011;2417;52.482;13.432;2023-10-09T01:35:54;9.80;;;3.83;;
4806;SDS011;2417;52.482;13.432;2023-10-09T01:38:27;7.33;;;4.00;;
4806;SDS011;2417;52.482;13.432;2023-10-09T01:41:10;6.63;;;4.13;;
4806;SDS011;2417;52.482;13.432;2023-10-09T01:43:42;5.20;;;3.50;;
4806;SDS011;2417;52.482;13.432;2023-10-09T01:46:11;6.87;;;3.70;;
4806;SDS011;2417;52.482;13.432;2023-10-09T01:48:43;8.80;;;4.33;;
4806;SDS011;2417;52.482;13.432;2023-10-09T01:51:14;7.30;;;4.13;;
4806;SDS011;2417;52.482;13.432;2023-10-09T01:53:48;7.20;;;4.63;;
4806;SDS011;2417;52.482;13.432;2023-10-09T01:56:21;7.30;;;4.20;;
4806;SDS011;2417;52.482;13.432;2023-10-09T01:58:49;8.30;;;4.50;;
4806;SDS011;2417;52.482;13.432;2023-10-09T02:01:17;8.70;;;4.13;;
4806;SDS011;2417;52.482;13.432;2023-10-09T02:03:45;12.60;;;4.53;;
4806;SDS011;2417;52.482;13.432;2023-10-09T02:06:18;9.97;;;5.20;;
4806;SDS011;2417;52.482;13.432;2023-10-09T02:08:55;9.77;;;5.00;;
4806;SDS011;2417;52.482;13.432;2023-10-09T02:11:23;6.13;;;4.30;;
4806;SDS011;2417;52.482;13.432;2023-10-09T02:14:04;11.17;;;5.47;;
4806;SDS011;2417;52.482;13.432;2023-10-09T02:16:46;13.33;;;5.90;;
4806;SDS011;2417;52.482;13.432;2023-10-09T02:19:29;13.57;;;5.50;;
4806;SDS011;2417;52.482;13.432;2023-10-09T02:22:01;11.40;;;5.40;;
4806;SDS011;2417;52.482;13.432;2023-10-09T02:24:40;12.50;;;6.10;;
4806;SDS011;2417;52.482;13.432;2023-10-09T02:27:24;13.07;;;5.50;;
4806;SDS011;2417;52.482;13.432;2023-10-09T02:30:18;11.60;;;5.33;;
4806;SDS011;2417;52.482;13.432;2023-10-09T02:32:54;14.33;;;5.40;;
4806;SDS011;2417;52.482;13.432;2023-10-09T02:35:33;14.13;;;5.67;;
4806;SDS011;2417;52.482;13.432;2023-10-09T02:38:05;14.70;;;5.90;;
4806;SDS011;2417;52.482;13.432;2023-10-09T02:40:36;48.70;;;6.73;;
4806;SDS011;2417;52.482;13.432;2023-10-09T02:43:19;7.83;;;5.40;;
4806;SDS011;2417;52.482;13.432;2023-10-09T02:45:47;21.67;;;5.80;;
4806;SDS011;2417;52.482;13.432;2023-10-09T02:48:19;11.93;;;5.90;;
4806;SDS011;2417;52.482;13.432;2023-10-09T02:50:52;17.83;;;6.17;;
4806;SDS011;2417;52.482;13.432;2023-10-09T02:53:21;17.20;;;5.40;;
4806;SDS011;2417;52.482;13.432;2023-10-09T02:56:19;16.17;;;5.60;;
4806;SDS011;2417;52.482;13.432;2023-10-09T02:58:55;24.97;;;7.03;;
4806;SDS011;2417;52.482;13.432;2023-10-09T03:01:33;15.80;;;6.00;;
4806;SDS011;2417;52.482;13.432;2023-10-09T03:04:03;23.43;;;6.90;;
4806;SDS011;2417;52.482;13.432;2023-10-09T03:06:33;13.40;;;6.70;;
4806;SDS011;2417;52.482;13.432;2023-10-09T03:09:07;10.97;;;5.87;;
4806;SDS011;2417;52.482;13.432;2023-10-09T03:12:05;11.50;;;6.10;;
4806;SDS011;2417;52.482;13.432;2023-10-09T03:14:37;31.20;;;7.00;;
4806;SDS011;2417;52.482;13.432;2023-10-09T03:17:05;22.60;;;6.00;;
4806;SDS011;2417;52.482;13.432;2023-10-09T03:19:39;13.83;;;6.13;;
4806;SDS011;2417;52.482;13.432;2023-10-09T03:22:07;49.70;;;7.13;;
4806;SDS011;2417;52.482;13.432;2023-10-09T03:24:37;55.03;;;6.33;;
4806;SDS011;2417;52.482;13.432;2023-10-09T03:27:07;19.97;;;5.93;;
4806;SDS011;2417;52.482;13.432;2023-10-09T03:29:35;18.50;;;6.07;;
4806;SDS011;2417;52.482;13.432;2023-10-09T03:32:03;25.20;;;6.10;;
4806;SDS011;2417;52.482;13.432;2023-10-09T03:34:33;11.67;;;6.30;;
4806;SDS011;2417;52.482;13.432;2023-10-09T03:37:01;12.77;;;5.93;;
4806;SDS011;2417;52.482;13.432;2023-10-09T03:39:38;11.00;;;5.40;;
4806;SDS011;2417;52.482;13.432;2023-10-09T03:42:09;13.67;;;6.67;;
4806;SDS011;2417;52.482;13.432;2023-10-09T03:44:47;13.10;;;5.87;;
4806;SDS011;2417;52.482;13.432;2023-10-09T03:47:21;9.23;;;5.70;;
4806;SDS011;2417;52.482;13.432;2023-10-09T03:49:51;12.23;;;5.93;;
4806;SDS011;2417;52.482;13.432;2023-10-09T03:52:21;12.30;;;6.40;;
4806;SDS011;2417;52.482;13.432;2023-10-09T03:54:53;10.27;;;5.30;;
4806;SDS011;2417;52.482;13.432;2023-10-09T03:57:23;10.97;;;5.40;;
4806;SDS011;2417;52.482;13.432;2023-10-09T03:59:52;10.80;;;5.20;;
4806;SDS011;2417;52.482;13.432;2023-10-09T04:02:22;10.97;;;5.17;;
4806;SDS011;2417;52.482;13.432;2023-10-09T04:04:50;8.53;;;4.70;;
4806;SDS011;2417;52.482;13.432;2023-10-09T04:07:19;9.00;;;5.10;;
4806;SDS011;2417;52.482;13.432;2023-10-09T04:09:48;9.70;;;5.03;;
4806;SDS011;2417;52.482;13.432;2023-10-09T04:12:30;8.70;;;5.10;;
4806;SDS011;2417;52.482;13.432;2023-10-09T04:15:00;10.60;;;5.57;;
4806;SDS011;2417;52.482;13.432;2023-10-09T04:17:30;13.17;;;6.63;;
4806;SDS011;2417;52.482;13.432;2023-10-09T04:20:02;16.53;;;7.00;;
4806;SDS011;2417;52.482;13.432;2023-10-09T04:23:13;12.17;;;6.73;;
4806;SDS011;2417;52.482;13.432;2023-10-09T04:25:43;13.10;;;7.47;;
4806;SDS011;2417;52.482;13.432;2023-10-09T04:28:13;13.97;;;7.33;;
4806;SDS011;2417;52.482;13.432;2023-10-09T04:30:47;11.07;;;6.80;;
4806;SDS011;2417;52.482;13.432;2023-10-09T04:33:21;16.13;;;7.97;;
4806;SDS011;2417;52.482;13.432;2023-10-09T04:36:10;15.17;;;7.03;;
4806;SDS011;2417;52.482;13.432;2023-10-09T04:38:51;15.37;;;8.10;;
4806;SDS011;2417;52.482;13.432;2023-10-09T04:41:39;11.17;;;7.30;;
4806;SDS011;2417;52.482;13.432;2023-10-09T04:44:20;15.97;;;8.27;;
4806;SDS011;2417;52.482;13.432;2023-10-09T04:46:51;16.17;;;7.47;;
4806;SDS011;2417;52.482;13.432;2023-10-09T04:49:41;16.83;;;7.80;;
4806;SDS011;2417;52.482;13.432;2023-10-09T04:52:18;13.53;;;7.23;;
4806;SDS011;2417;52.482;13.432;2023-10-09T04:55:07;15.50;;;7.70;;
4806;SDS011;2417;52.482;13.432;2023-10-09T04:57:44;15.73;;;8.40;;
4806;SDS011;2417;52.482;13.432;2023-10-09T05:00:30;16.87;;;8.47;;
4806;SDS011;2417;52.482;13.432;2023-10-09T05:03:28;15.30;;;8.47;;
4806;SDS011;2417;52.482;13.432;2023-10-09T05:06:10;19.13;;;10.17;;
4806;SDS011;2417;52.482;13.432;2023-10-09T05:08:56;15.30;;;9.40;;
4806;SDS011;2417;52.482;13.432;2023-10-09T05:11:34;17.50;;;9.77;;
4806;SDS011;2417;52.482;13.432;2023-10-09T05:14:20;14.97;;;9.70;;
4806;SDS011;2417;52.482;13.432;2023-10-09T05:17:07;16.20;;;9.17;;
4806;SDS011;2417;52.482;13.432;2023-10-09T05:19:43;16.43;;;8.50;;
4806;SDS011;2417;52.482;13.432;2023-10-09T05:22:21;21.10;;;9.80;;
4806;SDS011;2417;52.482;13.432;2023-10-09T05:25:04;13.67;;;8.10;;
4806;SDS011;2417;52.482;13.432;2023-10-09T05:27:42;11.73;;;7.33;;
4806;SDS011;2417;52.482;13.432;2023-10-09T05:30:18;12.97;;;7.50;;
4806;SDS011;2417;52.482;13.432;2023-10-09T05:32:55;17.10;;;9.57;;
4806;SDS011;2417;52.482;13.432;2023-10-09T05:35:26;18.97;;;8.30;;
4806;SDS011;2417;52.482;13.432;2023-10-09T05:38:26;15.80;;;8.50;;
4806;SDS011;2417;52.482;13.432;2023-10-09T05:40:57;16.17;;;8.20;;
4806;SDS011;2417;52.482;13.432;2023-10-09T05:43:44;17.20;;;8.20;;
4806;SDS011;2417;52.482;13.432;2023-10-09T05:46:30;16.20;;;7.47;;
4806;SDS011;2417;52.482;13.432;2023-10-09T05:49:04;13.50;;;7.33;;
4806;SDS011;2417;52.482;13.432;2023-10-09T05:51:46;10.83;;;6.53;;
4806;SDS011;2417;52.482;13.432;2023-10-09T05:54:21;12.33;;;6.30;;
4806;SDS011;2417;52.482;13.432;2023-10-09T05:57:06;16.83;;;6.23;;
4806;SDS011;2417;52.482;13.432;2023-10-09T06:00:06;12.00;;;7.27;;
4806;SDS011;2417;52.482;13.432;2023-10-09T06:02:51;10.97;;;6.50;;
4806;SDS011;2417;52.482;13.432;2023-10-09T06:05:38;13.13;;;6.90;;
4806;SDS011;2417;52.482;13.432;2023-10-09T06:08:18;14.23;;;6.83;;
4806;SDS011;2417;52.482;13.432;2023-10-09T06:10:52;16.37;;;6.80;;
4806;SDS011;2417;52.482;13.432;2023-10-09T06:13:33;18.83;;;7.20;;
4806;SDS011;2417;52.482;13.432;2023-10-09T06:16:12;21.60;;;7.00;;
4806;SDS011;2417;52.482;13.432;2023-10-09T06:19:08;13.60;;;7.07;;
4806;SDS011;2417;52.482;13.432;2023-10-09T06:21:41;14.43;;;7.70;;
4806;SDS011;2417;52.482;13.432;2023-10-09T06:24:26;13.00;;;7.87;;
4806;SDS011;2417;52.482;13.432;2023-10-09T06:27:00;15.40;;;8.90;;
4806;SDS011;2417;52.482;13.432;2023-10-09T06:29:42;16.53;;;7.63;;
4806;SDS011;2417;52.482;13.432;2023-10-09T06:32:18;16.07;;;8.00;;
4806;SDS011;2417;52.482;13.432;2023-10-09T06:35:04;15.17;;;8.03;;
4806;SDS011;2417;52.482;13.432;2023-10-09T06:37:45;20.73;;;8.40;;
4806;SDS011;2417;52.482;13.432;2023-10-09T06:40:34;18.70;;;7.27;;
4806;SDS011;2417;52.482;13.432;2023-10-09T06:43:21;15.50;;;7.40;;
4806;SDS011;2417;52.482;13.432;2023-10-09T06:45:56;11.93;;;6.43;;
4806;SDS011;2417;52.482;13.432;2023-10-09T06:48:46;15.97;;;7.30;;
4806;SDS011;2417;52.482;13.432;2023-10-09T06:51:23;17.60;;;7.10;;
4806;SDS011;2417;52.482;13.432;2023-10-09T06:54:10;15.53;;;7.83;;
4806;SDS011;2417;52.482;13.432;2023-10-09T06:56:43;14.20;;;7.10;;
4806;SDS011;2417;52.482;13.432;2023-10-09T06:59:28;21.17;;;9.37;;
4806;SDS011;2417;52.482;13.432;2023-10-09T07:02:08;15.30;;;7.63;;
4806;SDS011;2417;52.482;13.432;2023-10-09T07:04:54;17.20;;;8.50;;
4806;SDS011;2417;52.482;13.432;2023-10-09T07:07:40;19.70;;;8.87;;
4806;SDS011;2417;52.482;13.432;2023-10-09T07:10:18;17.30;;;8.97;;
4806;SDS011;2417;52.482;13.432;2023-10-09T07:13:00;20.60;;;9.53;;
4806;SDS011;2417;52.482;13.432;2023-10-09T07:15:30;17.40;;;9.10;;
4806;SDS011;2417;52.482;13.432;2023-10-09T07:18:16;15.37;;;9.20;;
4806;SDS011;2417;52.482;13.432;2023-10-09T07:20:50;18.27;;;9.03;;
4806;SDS011;2417;52.482;13.432;2023-10-09T07:23:28;20.43;;;11.17;;
4806;SDS011;2417;52.482;13.432;2023-10-09T07:26:05;22.60;;;10.63;;
4806;SDS011;2417;52.482;13.432;2023-10-09T07:28:50;19.20;;;10.30;;
4806;SDS011;2417;52.482;13.432;2023-10-09T07:31:27;19.73;;;9.67;;
4806;SDS011;2417;52.482;13.432;2023-10-09T07:34:07;22.00;;;10.30;;
4806;SDS011;2417;52.482;13.432;2023-10-09T07:36:48;18.20;;;9.37;;
4806;SDS011;2417;52.482;13.432;2023-10-09T07:39:23;22.63;;;10.67;;
4806;SDS011;2417;52.482;13.432;2023-10-09T07:42:05;21.00;;;10.77;;
4806;SDS011;2417;52.482;13.432;2023-10-09T07:44:47;18.17;;;9.83;;
4806;SDS011;2417;52.482;13.432;2023-10-09T07:47:21;18.93;;;10.23;;
4806;SDS011;2417;52.482;13.432;2023-10-09T07:50:12;18.50;;;8.60;;
4806;SDS011;2417;52.482;13.432;2023-10-09T07:52:48;23.73;;;10.30;;
4806;SDS011;2417;52.482;13.432;2023-10-09T07:55:16;20.03;;;10.47;;
4806;SDS011;2417;52.482;13.432;2023-10-09T07:57:57;20.00;;;9.50;;
4806;SDS011;2417;52.482;13.432;2023-10-09T08:00:37;18.30;;;9.07;;
4806;SDS011;2417;52.482;13.432;2023-10-09T08:03:28;20.03;;;9.80;;
4806;SDS011;2417;52.482;13.432;2023-10-09T08:05:59;20.77;;;9.63;;
4806;SDS011;2417;52.482;13.432;2023-10-09T08:08:56;16.27;;;9.47;;
4806;SDS011;2417;52.482;13.432;2023-10-09T08:11:53;19.10;;;9.50;;
4806;SDS011;2417;52.482;13.432;2023-10-09T08:14:42;22.07;;;10.20;;
4806;SDS011;2417;52.482;13.432;2023-10-09T08:17:15;21.57;;;11.00;;
4806;SDS011;2417;52.482;13.432;2023-10-09T08:19:45;25.60;;;11.93;;
4806;SDS011;2417;52.482;13.432;2023-10-09T08:22:24;21.80;;;11.67;;
4806;SDS011;2417;52.482;13.432;2023-10-09T08:25:10;21.33;;;11.40;;
4806;SDS011;2417;52.482;13.432;2023-10-09T08:27:59;25.30;;;11.60;;
4806;SDS011;2417;52.482;13.432;2023-10-09T08:30:56;21.90;;;11.10;;
4806;SDS011;2417;52.482;13.432;2023-10-09T08:33:45;20.70;;;10.60;;
4806;SDS011;2417;52.482;13.432;2023-10-09T08:36:26;20.10;;;10.37;;
4806;SDS011;2417;52.482;13.432;2023-10-09T08:38:59;27.63;;;10.70;;
4806;SDS011;2417;52.482;13.432;2023-10-09T08:41:40;23.40;;;10.10;;
4806;SDS011;2417;52.482;13.432;2023-10-09T08:44:08;18.17;;;10.20;;
4806;SDS011;2417;52.482;13.432;2023-10-09T08:46:43;22.67;;;10.43;;
4806;SDS011;2417;52.482;13.432;2023-10-09T08:49:11;20.53;;;11.07;;
4806;SDS011;2417;52.482;13.432;2023-10-09T08:51:41;21.77;;;10.83;;
4806;SDS011;2417;52.482;13.432;2023-10-09T08:54:09;16.70;;;10.37;;
4806;SDS011;2417;52.482;13.432;2023-10-09T08:56:38;21.57;;;9.87;;
4806;SDS011;2417;52.482;13.432;2023-10-09T08:59:16;17.83;;;9.27;;
4806;SDS011;2417;52.482;13.432;2023-10-09T09:01:47;19.93;;;10.43;;
4806;SDS011;2417;52.482;13.432;2023-10-09T09:04:33;23.20;;;10.13;;
4806;SDS011;2417;52.482;13.432;2023-10-09T09:07:02;24.47;;;10.90;;
4806;SDS011;2417;52.482;13.432;2023-10-09T09:09:31;20.07;;;10.27;;
4806;SDS011;2417;52.482;13.432;2023-10-09T09:12:00;20.83;;;12.37;;
4806;SDS011;2417;52.482;13.432;2023-10-09T09:14:38;25.10;;;11.37;;
4806;SDS011;2417;52.482;13.432;2023-10-09T09:17:07;20.43;;;11.70;;
4806;SDS011;2417;52.482;13.432;2023-10-09T09:19:38;17.30;;;10.60;;
4806;SDS011;2417;52.482;13.432;2023-10-09T09:22:06;25.97;;;12.10;;
4806;SDS011;2417;52.482;13.432;2023-10-09T09:24:42;23.07;;;12.27;;
4806;SDS011;2417;52.482;13.432;2023-10-09T09:30:22;19.80;;;10.73;;
4806;SDS011;2417;52.482;13.432;2023-10-09T09:32:53;19.50;;;11.50;;
4806;SDS011;2417;52.482;13.432;2023-10-09T09:35:36;19.93;;;12.40;;
4806;SDS011;2417;52.482;13.432;2023-10-09T09:38:03;19.50;;;12.10;;
4806;SDS011;2417;52.482;13.432;2023-10-09T09:40:33;22.37;;;12.37;;
4806;SDS011;2417;52.482;13.432;2023-10-09T09:43:08;21.97;;;11.20;;
4806;SDS011;2417;52.482;13.432;2023-10-09T09:45:48;19.30;;;11.70;;
4806;SDS011;2417;52.482;13.432;2023-10-09T09:48:19;22.60;;;11.57;;
4806;SDS011;2417;52.482;13.432;2023-10-09T09:50:47;17.10;;;10.70;;
4806;SDS011;2417;52.482;13.432;2023-10-09T09:53:19;22.47;;;11.70;;
4806;SDS011;2417;52.482;13.432;2023-10-09T09:55:50;18.80;;;11.93;;
4806;SDS011;2417;52.482;13.432;2023-10-09T09:58:23;20.77;;;12.93;;
4806;SDS011;2417;52.482;13.432;2023-10-09T10:00:56;19.97;;;11.90;;
4806;SDS011;2417;52.482;13.432;2023-10-09T10:03:29;21.93;;;12.23;;
4806;SDS011;2417;52.482;13.432;2023-10-09T10:06:00;23.27;;;14.10;;
4806;SDS011;2417;52.482;13.432;2023-10-09T10:08:31;22.77;;;13.67;;
4806;SDS011;2417;52.482;13.432;2023-10-09T10:11:00;21.63;;;12.57;;
4806;SDS011;2417;52.482;13.432;2023-10-09T10:16:22;28.07;;;14.33;;
4806;SDS011;2417;52.482;13.432;2023-10-09T10:18:55;20.50;;;12.50;;
4806;SDS011;2417;52.482;13.432;2023-10-09T10:21:33;21.13;;;11.47;;
4806;SDS011;2417;52.482;13.432;2023-10-09T10:29:45;19.87;;;12.53;;
4806;SDS011;2417;52.482;13.432;2023-10-09T10:32:17;19.47;;;12.70;;
4806;SDS011;2417;52.482;13.432;2023-10-09T10:34:57;20.70;;;12.00;;
4806;SDS011;2417;52.482;13.432;2023-10-09T10:37:36;20.50;;;12.97;;
4806;SDS011;2417;52.482;13.432;2023-10-09T10:40:12;20.40;;;13.37;;
4806;SDS011;2417;52.482;13.432;2023-10-09T10:43:00;23.73;;;12.10;;
4806;SDS011;2417;52.482;13.432;2023-10-09T10:45:36;17.67;;;10.63;;
4806;SDS011;2417;52.482;13.432;2023-10-09T10:48:05;20.83;;;12.30;;
4806;SDS011;2417;52.482;13.432;2023-10-09T10:50:37;27.83;;;15.40;;
4806;SDS011;2417;52.482;13.432;2023-10-09T10:53:11;20.10;;;12.50;;
4806;SDS011;2417;52.482;13.432;2023-10-09T10:55:55;18.27;;;10.80;;
4806;SDS011;2417;52.482;13.432;2023-10-09T10:58:23;17.83;;;10.63;;
4806;SDS011;2417;52.482;13.432;2023-10-09T11:00:52;19.40;;;11.87;;
4806;SDS011;2417;52.482;13.432;2023-10-09T11:03:38;14.07;;;10.10;;
4806;SDS011;2417;52.482;13.432;2023-10-09T11:06:27;12.03;;;8.33;;
4806;SDS011;2417;52.482;13.432;2023-10-09T11:09:04;15.53;;;9.30;;
4806;SDS011;2417;52.482;13.432;2023-10-09T11:11:50;13.53;;;8.67;;
4806;SDS011;2417;52.482;13.432;2023-10-09T11:14:24;13.53;;;8.70;;
4806;SDS011;2417;52.482;13.432;2023-10-09T11:16:52;12.43;;;6.93;;
4806;SDS011;2417;52.482;13.432;2023-10-09T11:19:25;13.20;;;7.90;;
4806;SDS011;2417;52.482;13.432;2023-10-09T11:22:03;13.80;;;8.67;;
4806;SDS011;2417;52.482;13.432;2023-10-09T11:24:49;15.00;;;8.03;;
4806;SDS011;2417;52.482;13.432;2023-10-09T11:27:39;16.83;;;8.37;;
4806;SDS011;2417;52.482;13.432;2023-10-09T11:30:17;22.50;;;9.60;;
4806;SDS011;2417;52.482;13.432;2023-10-09T11:33:05;14.30;;;8.70;;
4806;SDS011;2417;52.482;13.432;2023-10-09T11:35:34;14.57;;;8.17;;
4806;SDS011;2417;52.482;13.432;2023-10-09T11:38:04;14.73;;;8.47;;
4806;SDS011;2417;52.482;13.432;2023-10-09T11:40:49;18.07;;;9.07;;
4806;SDS011;2417;52.482;13.432;2023-10-09T11:43:46;15.30;;;9.37;;
4806;SDS011;2417;52.482;13.432;2023-10-09T11:46:18;20.07;;;9.70;;
4806;SDS011;2417;52.482;13.432;2023-10-09T11:49:15;22.23;;;9.73;;
4806;SDS011;2417;52.482;13.432;2023-10-09T11:52:08;15.50;;;9.00;;
4806;SDS011;2417;52.482;13.432;2023-10-09T11:54:55;13.90;;;9.27;;
4806;SDS011;2417;52.482;13.432;2023-10-09T11:57:24;14.10;;;8.70;;
4806;SDS011;2417;52.482;13.432;2023-10-09T11:59:57;20.93;;;10.37;;
4806;SDS011;2417;52.482;13.432;2023-10-09T12:02:30;17.97;;;10.53;;
4806;SDS011;2417;52.482;13.432;2023-10-09T12:04:59;14.63;;;8.33;;
4806;SDS011;2417;52.482;13.432;2023-10-09T12:07:27;14.10;;;8.83;;
4806;SDS011;2417;52.482;13.432;2023-10-09T12:09:56;14.50;;;8.70;;
4806;SDS011;2417;52.482;13.432;2023-10-09T12:12:24;21.17;;;8.63;;
4806;SDS011;2417;52.482;13.432;2023-10-09T12:14:53;17.77;;;9.03;;
4806;SDS011;2417;52.482;13.432;2023-10-09T12:17:21;17.23;;;9.17;;
4806;SDS011;2417;52.482;13.432;2023-10-09T12:19:53;14.73;;;8.93;;
4806;SDS011;2417;52.482;13.432;2023-10-09T12:22:23;19.07;;;8.80;;
4806;SDS011;2417;52.482;13.432;2023-10-09T12:24:54;15.17;;;8.97;;
4806;SDS011;2417;52.482;13.432;2023-10-09T12:27:24;16.03;;;10.10;;
4806;SDS011;2417;52.482;13.432;2023-10-09T12:29:56;16.40;;;9.97;;
4806;SDS011;2417;52.482;13.432;2023-10-09T12:32:25;15.23;;;9.37;;
4806;SDS011;2417;52.482;13.432;2023-10-09T12:34:53;15.97;;;10.03;;
4806;SDS011;2417;52.482;13.432;2023-10-09T12:37:23;16.00;;;9.33;;
4806;SDS011;2417;52.482;13.432;2023-10-09T12:39:51;18.03;;;9.00;;
4806;SDS011;2417;52.482;13.432;2023-10-09T12:42:22;16.43;;;9.20;;
4806;SDS011;2417;52.482;13.432;2023-10-09T12:44:52;20.10;;;11.43;;
4806;SDS011;2417;52.482;13.432;2023-10-09T12:47:24;20.33;;;11.23;;
4806;SDS011;2417;52.482;13.432;2023-10-09T12:49:53;21.17;;;11.80;;
4806;SDS011;2417;52.482;13.432;2023-10-09T12:52:21;25.63;;;11.63;;
4806;SDS011;2417;52.482;13.432;2023-10-09T12:54:56;18.80;;;11.57;;
4806;SDS011;2417;52.482;13.432;2023-10-09T12:57:24;16.50;;;10.20;;
4806;SDS011;2417;52.482;13.432;2023-10-09T12:59:54;19.03;;;10.47;;
4806;SDS011;2417;52.482;13.432;2023-10-09T13:02:22;18.80;;;10.63;;
4806;SDS011;2417;52.482;13.432;2023-10-09T13:04:56;18.83;;;12.30;;
4806;SDS011;2417;52.482;13.432;2023-10-09T13:07:24;21.80;;;12.20;;
4806;SDS011;2417;52.482;13.432;2023-10-09T13:09:52;19.90;;;12.70;;
4806;SDS011;2417;52.482;13.432;2023-10-09T13:12:34;23.00;;;14.03;;
4806;SDS011;2417;52.482;13.432;2023-10-09T13:15:09;19.63;;;12.20;;
4806;SDS011;2417;52.482;13.432;2023-10-09T13:17:37;23.67;;;13.70;;
4806;SDS011;2417;52.482;13.432;2023-10-09T13:20:06;20.10;;;12.57;;
4806;SDS011;2417;52.482;13.432;2023-10-09T13:22:40;21.40;;;12.87;;
4806;SDS011;2417;52.482;13.432;2023-10-09T13:25:09;17.50;;;11.47;;
4806;SDS011;2417;52.482;13.432;2023-10-09T13:28:00;19.00;;;11.50;;
4806;SDS011;2417;52.482;13.432;2023-10-09T13:30:32;22.37;;;12.50;;
4806;SDS011;2417;52.482;13.432;2023-10-09T13:33:09;18.23;;;10.90;;
4806;SDS011;2417;52.482;13.432;2023-10-09T13:35:44;24.63;;;11.60;;
4806;SDS011;2417;52.482;13.432;2023-10-09T13:38:17;20.30;;;11.20;;
4806;SDS011;2417;52.482;13.432;2023-10-09T13:40:45;22.00;;;12.10;;
4806;SDS011;2417;52.482;13.432;2023-10-09T13:43:13;20.43;;;12.23;;
4806;SDS011;2417;52.482;13.432;2023-10-09T13:45:45;19.30;;;11.40;;
4806;SDS011;2417;52.482;13.432;2023-10-09T13:48:17;18.00;;;11.17;;
4806;SDS011;2417;52.482;13.432;2023-10-09T13:50:47;23.47;;;12.60;;
4806;SDS011;2417;52.482;13.432;2023-10-09T13:53:15;20.10;;;11.80;;
4806;SDS011;2417;52.482;13.432;2023-10-09T13:55:44;19.73;;;10.60;;
4806;SDS011;2417;52.482;13.432;2023-10-09T13:58:14;21.00;;;12.67;;
4806;SDS011;2417;52.482;13.432;2023-10-09T14:00:49;18.37;;;11.00;;
4806;SDS011;2417;52.482;13.432;2023-10-09T14:03:20;19.57;;;11.80;;
4806;SDS011;2417;52.482;13.432;2023-10-09T14:05:50;20.10;;;11.23;;
4806;SDS011;2417;52.482;13.432;2023-10-09T14:08:23;19.57;;;11.70;;
4806;SDS011;2417;52.482;13.432;2023-10-09T14:10:52;15.40;;;10.37;;
4806;SDS011;2417;52.482;13.432;2023-10-09T14:13:21;20.00;;;11.40;;
4806;SDS011;2417;52.482;13.432;2023-10-09T14:15:56;22.50;;;13.00;;
4806;SDS011;2417;52.482;13.432;2023-10-09T14:18:26;18.80;;;10.47;;
4806;SDS011;2417;52.482;13.432;2023-10-09T14:20:56;16.77;;;10.00;;
4806;SDS011;2417;52.482;13.432;2023-10-09T14:23:33;20.30;;;11.03;;
4806;SDS011;2417;52.482;13.432;2023-10-09T14:26:02;20.10;;;11.70;;
4806;SDS011;2417;52.482;13.432;2023-10-09T14:28:33;19.37;;;12.30;;
4806;SDS011;2417;52.482;13.432;2023-10-09T14:31:02;17.90;;;11.20;;
4806;SDS011;2417;52.482;13.432;2023-10-09T14:33:32;24.53;;;13.20;;
4806;SDS011;2417;52.482;13.432;2023-10-09T14:36:03;20.43;;;10.67;;
4806;SDS011;2417;52.482;13.432;2023-10-09T14:38:32;19.87;;;11.50;;
4806;SDS011;2417;52.482;13.432;2023-10-09T14:41:06;23.47;;;12.20;;
4806;SDS011;2417;52.482;13.432;2023-10-09T14:43:39;19.80;;;12.00;;
4806;SDS011;2417;52.482;13.432;2023-10-09T14:46:13;17.63;;;11.10;;
4806;SDS011;2417;52.482;13.432;2023-10-09T14:48:42;20.53;;;12.47;;
4806;SDS011;2417;52.482;13.432;2023-10-09T14:51:13;19.67;;;10.97;;
4806;SDS011;2417;52.482;13.432;2023-10-09T14:53:41;23.13;;;11.73;;
4806;SDS011;2417;52.482;13.432;2023-10-09T14:56:10;22.27;;;12.83;;
4806;SDS011;2417;52.482;13.432;2023-10-09T14:58:43;20.03;;;11.60;;
4806;SDS011;2417;52.482;13.432;2023-10-09T15:01:14;19.53;;;11.67;;
4806;SDS011;2417;52.482;13.432;2023-10-09T15:03:46;22.67;;;13.47;;
4806;SDS011;2417;52.482;13.432;2023-10-09T15:06:16;22.33;;;14.20;;
4806;SDS011;2417;52.482;13.432;2023-10-09T15:08:45;21.20;;;13.03;;
4806;SDS011;2417;52.482;13.432;2023-10-09T15:11:13;23.30;;;14.00;;
4806;SDS011;2417;52.482;13.432;2023-10-09T15:13:42;22.20;;;13.70;;
4806;SDS011;2417;52.482;13.432;2023-10-09T15:16:10;22.30;;;14.20;;
4806;SDS011;2417;52.482;13.432;2023-10-09T15:18:39;25.93;;;15.80;;
4806;SDS011;2417;52.482;13.432;2023-10-09T15:21:07;22.03;;;13.37;;
4806;SDS011;2417;52.482;13.432;2023-10-09T15:23:36;23.80;;;14.00;;
4806;SDS011;2417;52.482;13.432;2023-10-09T15:26:04;21.43;;;13.30;;
4806;SDS011;2417;52.482;13.432;2023-10-09T15:28:33;25.70;;;15.17;;
4806;SDS011;2417;52.482;13.432;2023-10-09T15:31:02;23.50;;;14.80;;
4806;SDS011;2417;52.482;13.432;2023-10-09T15:33:33;20.60;;;13.80;;
4806;SDS011;2417;52.482;13.432;2023-10-09T15:36:10;17.60;;;12.43;;
4806;SDS011;2417;52.482;13.432;2023-10-09T15:38:38;23.47;;;14.17;;
4806;SDS011;2417;52.482;13.432;2023-10-09T15:41:06;23.80;;;14.43;;
4806;SDS011;2417;52.482;13.432;2023-10-09T15:43:35;20.27;;;12.17;;